Hull, Canada
Current Conditions -  °F | °C
As of 12:44 PM on Tuesday 21 Oct 2014 (Local Time) from CYOW Reporting Station
Overcast Overcast  
Wind Chill: 35°   Ceiling: 4000
Heat Index: 43°   Visibility: 15mi
Dew Point: 41°   Wind: 16mph
Humidity: 93%   Direction: 40°NE
Pressure: 30.01"   Gusts: NA
Location:  45.43°N, 75.71°W
Report Text: CYOW 211644Z 04014KT 15SM FEW009 OVC040 06/05 A3001 RMK SF1SC7 SLP167
Loading
Personal Weather Stations






























Interactive Weather Map
Tropical Storm Tracking
New forecast layout! Learn more

10-Day Weather Forecast

Advertisements
Track Severe Weather on mobile